sensor_id;sensor_type;location;lat;lon;timestamp;pressure;altitude;pressure_sealevel;temperature;humidity
13553;BME280;6847;48.830;9.116;2022-09-09T00:00:47;97539.88;;;19.39;48.58
13553;BME280;6847;48.830;9.116;2022-09-09T00:03:22;97522.50;;;19.23;48.57
13553;BME280;6847;48.830;9.116;2022-09-09T00:05:58;97543.09;;;19.41;48.88
13553;BME280;6847;48.830;9.116;2022-09-09T00:08:31;97532.09;;;19.41;48.63
13553;BME280;6847;48.830;9.116;2022-09-09T00:11:05;97528.69;;;19.32;48.58
13553;BME280;6847;48.830;9.116;2022-09-09T00:13:37;97540.00;;;19.43;48.58
13553;BME280;6847;48.830;9.116;2022-09-09T00:16:10;97539.31;;;19.46;48.36
13553;BME280;6847;48.830;9.116;2022-09-09T00:18:50;97527.66;;;19.49;48.63
13553;BME280;6847;48.830;9.116;2022-09-09T00:21:24;97526.19;;;19.51;48.52
13553;BME280;6847;48.830;9.116;2022-09-09T00:23:54;97531.22;;;19.62;48.95
13553;BME280;6847;48.830;9.116;2022-09-09T00:26:26;97534.88;;;19.66;48.29
13553;BME280;6847;48.830;9.116;2022-09-09T00:29:00;97522.50;;;19.72;48.58
13553;BME280;6847;48.830;9.116;2022-09-09T00:31:32;97521.03;;;19.74;48.53
13553;BME280;6847;48.830;9.116;2022-09-09T00:34:05;97526.59;;;19.90;48.25
13553;BME280;6847;48.830;9.116;2022-09-09T00:36:39;97483.59;;;19.70;48.21
13553;BME280;6847;48.830;9.116;2022-09-09T00:39:15;97521.53;;;20.04;48.67
13553;BME280;6847;48.830;9.116;2022-09-09T00:41:57;97520.25;;;20.14;48.16
13553;BME280;6847;48.830;9.116;2022-09-09T00:44:31;97521.69;;;20.23;48.30
13553;BME280;6847;48.830;9.116;2022-09-09T00:47:12;97522.34;;;20.32;48.32
13553;BME280;6847;48.830;9.116;2022-09-09T00:49:52;97525.31;;;20.40;48.28
13553;BME280;6847;48.830;9.116;2022-09-09T00:52:33;97521.19;;;20.46;48.08
13553;BME280;6847;48.830;9.116;2022-09-09T00:55:09;97523.69;;;20.51;48.30
13553;BME280;6847;48.830;9.116;2022-09-09T00:57:40;97529.28;;;20.54;48.17
13553;BME280;6847;48.830;9.116;2022-09-09T01:00:21;97540.38;;;20.58;48.10
13553;BME280;6847;48.830;9.116;2022-09-09T01:05:39;97538.06;;;20.60;48.18
13553;BME280;6847;48.830;9.116;2022-09-09T01:08:28;97521.56;;;20.60;48.34
13553;BME280;6847;48.830;9.116;2022-09-09T01:11:01;97534.97;;;20.61;48.12
13553;BME280;6847;48.830;9.116;2022-09-09T01:13:30;97517.66;;;20.61;48.07
13553;BME280;6847;48.830;9.116;2022-09-09T01:16:00;97515.38;;;20.63;48.24
13553;BME280;6847;48.830;9.116;2022-09-09T01:18:34;97495.47;;;20.54;47.91
13553;BME280;6847;48.830;9.116;2022-09-09T01:21:14;97527.25;;;20.67;48.22
13553;BME280;6847;48.830;9.116;2022-09-09T01:24:03;97515.28;;;20.59;47.98
13553;BME280;6847;48.830;9.116;2022-09-09T01:26:37;97500.69;;;20.43;48.35
13553;BME280;6847;48.830;9.116;2022-09-09T01:29:11;97530.28;;;20.62;48.31
13553;BME280;6847;48.830;9.116;2022-09-09T01:31:40;97538.75;;;20.57;48.22
13553;BME280;6847;48.830;9.116;2022-09-09T01:34:11;97546.59;;;20.55;47.97
13553;BME280;6847;48.830;9.116;2022-09-09T01:36:41;97551.19;;;20.51;48.22
13553;BME280;6847;48.830;9.116;2022-09-09T01:39:10;97548.69;;;20.46;48.20
13553;BME280;6847;48.830;9.116;2022-09-09T01:41:42;97544.69;;;20.43;48.53
13553;BME280;6847;48.830;9.116;2022-09-09T01:44:09;97546.19;;;20.41;48.30
13553;BME280;6847;48.830;9.116;2022-09-09T01:46:39;97545.50;;;20.44;48.47
13553;BME280;6847;48.830;9.116;2022-09-09T01:49:07;97546.38;;;20.48;48.32
13553;BME280;6847;48.830;9.116;2022-09-09T01:51:36;97544.81;;;20.47;48.27
13553;BME280;6847;48.830;9.116;2022-09-09T01:54:07;97540.00;;;20.44;48.23
13553;BME280;6847;48.830;9.116;2022-09-09T01:56:43;97540.78;;;20.44;48.36
13553;BME280;6847;48.830;9.116;2022-09-09T01:59:24;97545.03;;;20.42;48.39
13553;BME280;6847;48.830;9.116;2022-09-09T02:02:06;97520.09;;;20.22;48.47
13553;BME280;6847;48.830;9.116;2022-09-09T02:04:37;97461.84;;;19.77;48.57
13553;BME280;6847;48.830;9.116;2022-09-09T02:07:14;97524.44;;;20.23;48.53
13553;BME280;6847;48.830;9.116;2022-09-09T02:09:53;97530.91;;;20.15;48.86
13553;BME280;6847;48.830;9.116;2022-09-09T02:12:25;97544.41;;;20.08;48.65
13553;BME280;6847;48.830;9.116;2022-09-09T02:14:57;97538.97;;;19.96;48.96
13553;BME280;6847;48.830;9.116;2022-09-09T02:17:28;97547.22;;;19.96;48.73
13553;BME280;6847;48.830;9.116;2022-09-09T02:20:04;97550.88;;;19.88;48.73
13553;BME280;6847;48.830;9.116;2022-09-09T02:22:32;97550.66;;;19.81;49.12
13553;BME280;6847;48.830;9.116;2022-09-09T02:25:11;97544.25;;;19.77;49.07
13553;BME280;6847;48.830;9.116;2022-09-09T02:27:40;97553.53;;;19.72;48.82
13553;BME280;6847;48.830;9.116;2022-09-09T02:30:10;97555.00;;;19.70;48.98
13553;BME280;6847;48.830;9.116;2022-09-09T02:32:42;97492.44;;;19.27;48.94
13553;BME280;6847;48.830;9.116;2022-09-09T02:35:13;97560.88;;;19.56;48.99
13553;BME280;6847;48.830;9.116;2022-09-09T02:37:42;97525.47;;;19.30;49.24
13553;BME280;6847;48.830;9.116;2022-09-09T02:40:12;97556.00;;;19.41;49.33
13553;BME280;6847;48.830;9.116;2022-09-09T02:42:41;97547.22;;;19.35;49.62
13553;BME280;6847;48.830;9.116;2022-09-09T02:45:11;97549.03;;;19.31;49.37
13553;BME280;6847;48.830;9.116;2022-09-09T02:47:42;97540.34;;;19.29;49.67
13553;BME280;6847;48.830;9.116;2022-09-09T02:50:19;97544.25;;;19.28;49.70
13553;BME280;6847;48.830;9.116;2022-09-09T02:52:55;97534.88;;;19.29;49.50
13553;BME280;6847;48.830;9.116;2022-09-09T02:55:32;97514.03;;;19.16;49.14
13553;BME280;6847;48.830;9.116;2022-09-09T02:58:07;97530.59;;;19.19;49.61
13553;BME280;6847;48.830;9.116;2022-09-09T03:00:37;97517.13;;;19.14;49.42
13553;BME280;6847;48.830;9.116;2022-09-09T03:03:08;97517.00;;;19.11;49.52
13553;BME280;6847;48.830;9.116;2022-09-09T03:05:35;97522.47;;;19.11;49.35
13553;BME280;6847;48.830;9.116;2022-09-09T03:08:05;97518.72;;;19.15;49.56
13553;BME280;6847;48.830;9.116;2022-09-09T03:10:32;97510.16;;;19.17;49.47
13553;BME280;6847;48.830;9.116;2022-09-09T03:13:00;97503.06;;;19.16;49.67
13553;BME280;6847;48.830;9.116;2022-09-09T03:15:28;97512.91;;;19.17;49.29
13553;BME280;6847;48.830;9.116;2022-09-09T03:17:55;97512.91;;;19.17;49.26
13553;BME280;6847;48.830;9.116;2022-09-09T03:20:27;97489.19;;;19.00;49.61
13553;BME280;6847;48.830;9.116;2022-09-09T03:22:58;97507.88;;;19.19;49.65
13553;BME280;6847;48.830;9.116;2022-09-09T03:25:25;97518.84;;;19.19;49.49
13553;BME280;6847;48.830;9.116;2022-09-09T03:27:54;97528.31;;;19.21;49.79
13553;BME280;6847;48.830;9.116;2022-09-09T03:30:23;97516.53;;;19.21;49.47
13553;BME280;6847;48.830;9.116;2022-09-09T03:32:52;97521.22;;;19.20;49.55
13553;BME280;6847;48.830;9.116;2022-09-09T03:35:20;97476.31;;;18.89;49.62
13553;BME280;6847;48.830;9.116;2022-09-09T03:37:47;97526.38;;;19.10;50.16
13553;BME280;6847;48.830;9.116;2022-09-09T03:40:15;97524.66;;;19.05;50.08
13553;BME280;6847;48.830;9.116;2022-09-09T03:42:41;97523.84;;;19.05;49.87
13553;BME280;6847;48.830;9.116;2022-09-09T03:45:10;97517.22;;;19.06;49.89
13553;BME280;6847;48.830;9.116;2022-09-09T03:47:37;97532.56;;;19.07;49.89
13553;BME280;6847;48.830;9.116;2022-09-09T03:50:08;97530.28;;;19.09;50.05
13553;BME280;6847;48.830;9.116;2022-09-09T03:52:38;97528.44;;;19.13;49.98
13553;BME280;6847;48.830;9.116;2022-09-09T03:55:07;97533.34;;;19.19;49.62
13553;BME280;6847;48.830;9.116;2022-09-09T03:57:34;97527.53;;;19.21;50.06
13553;BME280;6847;48.830;9.116;2022-09-09T04:00:02;97522.97;;;19.25;49.66
13553;BME280;6847;48.830;9.116;2022-09-09T04:02:36;97522.28;;;19.28;49.95
13553;BME280;6847;48.830;9.116;2022-09-09T04:05:05;97522.03;;;19.33;49.75
13553;BME280;6847;48.830;9.116;2022-09-09T04:07:34;97518.63;;;19.36;49.76
13553;BME280;6847;48.830;9.116;2022-09-09T04:10:01;97493.91;;;19.24;49.65
13553;BME280;6847;48.830;9.116;2022-09-09T04:12:27;97522.72;;;19.42;49.91
13553;BME280;6847;48.830;9.116;2022-09-09T04:14:56;97525.94;;;19.44;50.12
13553;BME280;6847;48.830;9.116;2022-09-09T04:17:23;97529.28;;;19.50;49.44
13553;BME280;6847;48.830;9.116;2022-09-09T04:19:55;97533.28;;;19.52;49.65
13553;BME280;6847;48.830;9.116;2022-09-09T04:22:25;97524.16;;;19.48;49.74
13553;BME280;6847;48.830;9.116;2022-09-09T04:24:52;97534.88;;;19.53;49.99
13553;BME280;6847;48.830;9.116;2022-09-09T04:27:19;97540.38;;;19.53;49.82
13553;BME280;6847;48.830;9.116;2022-09-09T04:29:46;97487.16;;;19.21;50.10
13553;BME280;6847;48.830;9.116;2022-09-09T04:32:13;97534.22;;;19.56;50.26
13553;BME280;6847;48.830;9.116;2022-09-09T04:34:41;97536.25;;;19.59;49.93
13553;BME280;6847;48.830;9.116;2022-09-09T04:37:11;97546.69;;;19.66;50.00
13553;BME280;6847;48.830;9.116;2022-09-09T04:39:39;97550.44;;;19.74;50.19
13553;BME280;6847;48.830;9.116;2022-09-09T04:42:06;97551.34;;;19.78;49.71
13553;BME280;6847;48.830;9.116;2022-09-09T04:44:35;97547.91;;;19.81;49.98
13553;BME280;6847;48.830;9.116;2022-09-09T04:47:02;97545.97;;;19.81;49.70
13553;BME280;6847;48.830;9.116;2022-09-09T04:49:34;97556.84;;;19.78;50.00
13553;BME280;6847;48.830;9.116;2022-09-09T04:52:02;97554.78;;;19.75;50.09
13553;BME280;6847;48.830;9.116;2022-09-09T04:54:30;97544.47;;;19.72;50.16
13553;BME280;6847;48.830;9.116;2022-09-09T04:57:20;97560.06;;;19.68;50.26
13553;BME280;6847;48.830;9.116;2022-09-09T04:59:47;97549.28;;;19.63;50.06
13553;BME280;6847;48.830;9.116;2022-09-09T05:02:16;97555.47;;;19.59;50.44
13553;BME280;6847;48.830;9.116;2022-09-09T05:04:43;97556.84;;;19.53;50.22
13553;BME280;6847;48.830;9.116;2022-09-09T05:07:09;97559.47;;;19.50;50.27
13553;BME280;6847;48.830;9.116;2022-09-09T05:09:36;97558.34;;;19.51;50.30
13553;BME280;6847;48.830;9.116;2022-09-09T05:12:03;97563.94;;;19.54;50.32
13553;BME280;6847;48.830;9.116;2022-09-09T05:14:31;97566.91;;;19.62;50.11
13553;BME280;6847;48.830;9.116;2022-09-09T05:16:58;97568.31;;;19.68;50.28
13553;BME280;6847;48.830;9.116;2022-09-09T05:19:25;97567.84;;;19.78;50.20
13553;BME280;6847;48.830;9.116;2022-09-09T05:21:52;97575.16;;;19.86;49.88
13553;BME280;6847;48.830;9.116;2022-09-09T05:24:19;97566.78;;;19.94;49.93
13553;BME280;6847;48.830;9.116;2022-09-09T05:26:48;97562.28;;;20.02;50.04
13553;BME280;6847;48.830;9.116;2022-09-09T05:29:14;97573.75;;;20.04;50.11
13553;BME280;6847;48.830;9.116;2022-09-09T05:31:45;97558.28;;;20.00;49.62
13553;BME280;6847;48.830;9.116;2022-09-09T05:34:13;97562.50;;;20.09;50.08
13553;BME280;6847;48.830;9.116;2022-09-09T05:36:40;97571.31;;;20.15;50.06
13553;BME280;6847;48.830;9.116;2022-09-09T05:39:08;97496.66;;;19.73;50.02
13553;BME280;6847;48.830;9.116;2022-09-09T05:41:38;97574.41;;;20.13;49.94
13553;BME280;6847;48.830;9.116;2022-09-09T05:44:08;97581.50;;;20.14;50.22
13553;BME280;6847;48.830;9.116;2022-09-09T05:46:35;97578.75;;;20.14;50.30
13553;BME280;6847;48.830;9.116;2022-09-09T05:49:08;97417.31;;;19.07;50.04
13553;BME280;6847;48.830;9.116;2022-09-09T05:51:36;97574.41;;;20.13;50.23
13553;BME280;6847;48.830;9.116;2022-09-09T05:54:03;97568.13;;;20.13;50.07
13553;BME280;6847;48.830;9.116;2022-09-09T05:56:35;97573.13;;;20.23;50.32
13553;BME280;6847;48.830;9.116;2022-09-09T05:59:01;97582.84;;;20.32;50.18
13553;BME280;6847;48.830;9.116;2022-09-09T06:01:32;97506.94;;;19.88;50.00
13553;BME280;6847;48.830;9.116;2022-09-09T06:03:59;97582.28;;;20.39;50.07
13553;BME280;6847;48.830;9.116;2022-09-09T06:06:32;97576.88;;;20.43;49.94
13553;BME280;6847;48.830;9.116;2022-09-09T06:09:03;97568.88;;;20.38;50.05
13553;BME280;6847;48.830;9.116;2022-09-09T06:11:35;97584.53;;;20.49;49.72
13553;BME280;6847;48.830;9.116;2022-09-09T06:14:03;97581.88;;;20.53;49.89
13553;BME280;6847;48.830;9.116;2022-09-09T06:16:31;97589.88;;;20.58;49.90
13553;BME280;6847;48.830;9.116;2022-09-09T06:18:59;97589.31;;;20.64;49.75
13553;BME280;6847;48.830;9.116;2022-09-09T06:21:30;97565.38;;;20.53;49.80
13553;BME280;6847;48.830;9.116;2022-09-09T06:24:01;97594.06;;;20.67;49.73
13553;BME280;6847;48.830;9.116;2022-09-09T06:26:30;97590.09;;;20.65;49.67
13553;BME280;6847;48.830;9.116;2022-09-09T06:28:57;97577.28;;;20.57;49.87
13553;BME280;6847;48.830;9.116;2022-09-09T06:31:32;97599.94;;;20.66;49.95
13553;BME280;6847;48.830;9.116;2022-09-09T06:34:00;97601.91;;;20.65;49.96
13553;BME280;6847;48.830;9.116;2022-09-09T06:36:34;97511.88;;;20.10;49.90
13553;BME280;6847;48.830;9.116;2022-09-09T06:39:02;97565.88;;;20.43;49.97
13553;BME280;6847;48.830;9.116;2022-09-09T06:41:30;97603.84;;;20.65;50.04
13553;BME280;6847;48.830;9.116;2022-09-09T06:43:58;97603.47;;;20.66;49.98
13553;BME280;6847;48.830;9.116;2022-09-09T06:46:27;97599.00;;;20.74;49.95
13553;BME280;6847;48.830;9.116;2022-09-09T06:48:55;97600.78;;;20.82;49.80
13553;BME280;6847;48.830;9.116;2022-09-09T06:51:25;97600.53;;;20.87;50.10
13553;BME280;6847;48.830;9.116;2022-09-09T06:53:55;97599.59;;;20.95;49.65
13553;BME280;6847;48.830;9.116;2022-09-09T06:56:24;97606.25;;;21.10;49.44
13553;BME280;6847;48.830;9.116;2022-09-09T06:58:53;97599.03;;;21.18;49.42
13553;BME280;6847;48.830;9.116;2022-09-09T07:01:21;97602.16;;;21.32;49.20
13553;BME280;6847;48.830;9.116;2022-09-09T07:03:49;97461.00;;;20.56;49.27
13553;BME280;6847;48.830;9.116;2022-09-09T07:06:31;97372.97;;;19.97;49.22
13553;BME280;6847;48.830;9.116;2022-09-09T07:09:05;97601.16;;;21.56;49.15
13553;BME280;6847;48.830;9.116;2022-09-09T07:11:36;97601.25;;;21.59;49.19
13553;BME280;6847;48.830;9.116;2022-09-09T07:14:08;97612.44;;;21.66;49.11
13553;BME280;6847;48.830;9.116;2022-09-09T07:16:37;97611.03;;;21.72;49.07
13553;BME280;6847;48.830;9.116;2022-09-09T07:19:04;97616.97;;;21.74;49.02
13553;BME280;6847;48.830;9.116;2022-09-09T07:21:38;97570.50;;;21.57;48.98
13553;BME280;6847;48.830;9.116;2022-09-09T07:24:07;97607.03;;;22.01;48.77
13553;BME280;6847;48.830;9.116;2022-09-09T07:26:38;97611.34;;;22.18;48.68
13553;BME280;6847;48.830;9.116;2022-09-09T07:29:06;97454.72;;;21.19;48.34
13553;BME280;6847;48.830;9.116;2022-09-09T07:31:43;97610.78;;;22.28;48.71
13553;BME280;6847;48.830;9.116;2022-09-09T07:34:10;97602.38;;;22.40;48.67
13553;BME280;6847;48.830;9.116;2022-09-09T07:36:38;97596.56;;;22.65;48.22
13553;BME280;6847;48.830;9.116;2022-09-09T07:39:10;97600.09;;;23.00;47.72
13553;BME280;6847;48.830;9.116;2022-09-09T07:41:40;97607.34;;;23.31;47.49
13553;BME280;6847;48.830;9.116;2022-09-09T07:44:09;97607.81;;;23.56;47.31
13553;BME280;6847;48.830;9.116;2022-09-09T07:46:39;97620.59;;;23.64;47.32
13553;BME280;6847;48.830;9.116;2022-09-09T07:49:20;97617.38;;;23.62;47.62
13553;BME280;6847;48.830;9.116;2022-09-09T07:51:47;97613.91;;;23.91;47.00
13553;BME280;6847;48.830;9.116;2022-09-09T07:54:23;97615.41;;;26.92;42.45
13553;BME280;6847;48.830;9.116;2022-09-09T07:56:50;97622.97;;;29.63;38.71
13553;BME280;6847;48.830;9.116;2022-09-09T07:59:20;97620.72;;;31.69;36.93
13553;BME280;6847;48.830;9.116;2022-09-09T08:01:50;97615.31;;;33.11;36.38
13553;BME280;6847;48.830;9.116;2022-09-09T08:04:21;97607.72;;;31.82;38.70
13553;BME280;6847;48.830;9.116;2022-09-09T08:06:53;97619.59;;;30.72;41.03
13553;BME280;6847;48.830;9.116;2022-09-09T08:09:23;97629.63;;;31.34;40.03
13553;BME280;6847;48.830;9.116;2022-09-09T08:11:56;97631.09;;;30.77;41.04
13553;BME280;6847;48.830;9.116;2022-09-09T08:14:24;97623.13;;;31.13;39.75
13553;BME280;6847;48.830;9.116;2022-09-09T08:16:56;97633.28;;;32.54;37.86
13553;BME280;6847;48.830;9.116;2022-09-09T08:19:23;97630.63;;;33.46;37.12
13553;BME280;6847;48.830;9.116;2022-09-09T08:21:53;97629.25;;;34.51;35.73
13553;BME280;6847;48.830;9.116;2022-09-09T08:24:21;97659.44;;;35.21;35.42
13553;BME280;6847;48.830;9.116;2022-09-09T08:26:49;97663.16;;;35.85;34.69
13553;BME280;6847;48.830;9.116;2022-09-09T08:29:19;97668.22;;;36.03;34.34
13553;BME280;6847;48.830;9.116;2022-09-09T08:31:50;97645.47;;;35.85;34.08
13553;BME280;6847;48.830;9.116;2022-09-09T08:34:34;97654.66;;;33.99;37.40
13553;BME280;6847;48.830;9.116;2022-09-09T08:37:00;97651.34;;;34.37;36.10
13553;BME280;6847;48.830;9.116;2022-09-09T08:39:28;97652.06;;;34.99;35.21
13553;BME280;6847;48.830;9.116;2022-09-09T08:42:22;97643.91;;;34.75;35.17
13553;BME280;6847;48.830;9.116;2022-09-09T08:45:03;97645.56;;;35.69;34.18
13553;BME280;6847;48.830;9.116;2022-09-09T08:47:45;97639.72;;;35.76;33.57
13553;BME280;6847;48.830;9.116;2022-09-09T08:50:19;97645.66;;;35.52;33.70
13553;BME280;6847;48.830;9.116;2022-09-09T08:52:54;97587.75;;;35.26;33.46
13553;BME280;6847;48.830;9.116;2022-09-09T08:55:35;97640.28;;;33.97;35.13
13553;BME280;6847;48.830;9.116;2022-09-09T08:58:13;97570.72;;;32.81;35.80
13553;BME280;6847;48.830;9.116;2022-09-09T09:01:06;97637.84;;;33.63;34.91
13553;BME280;6847;48.830;9.116;2022-09-09T09:03:43;97646.28;;;34.61;33.35
13553;BME280;6847;48.830;9.116;2022-09-09T09:06:24;97652.66;;;35.86;32.32
13553;BME280;6847;48.830;9.116;2022-09-09T09:09:00;97654.41;;;34.71;32.97
13553;BME280;6847;48.830;9.116;2022-09-09T09:11:35;97649.06;;;32.45;35.39
13553;BME280;6847;48.830;9.116;2022-09-09T09:14:10;97649.75;;;30.87;37.25
13553;BME280;6847;48.830;9.116;2022-09-09T09:16:50;97647.78;;;29.47;38.78
13553;BME280;6847;48.830;9.116;2022-09-09T09:19:19;97645.78;;;28.39;39.36
13553;BME280;6847;48.830;9.116;2022-09-09T09:21:54;97645.72;;;27.47;39.85
13553;BME280;6847;48.830;9.116;2022-09-09T09:24:34;97636.28;;;26.68;40.14
13553;BME280;6847;48.830;9.116;2022-09-09T09:27:13;97632.31;;;26.07;40.65
13553;BME280;6847;48.830;9.116;2022-09-09T09:29:44;97634.34;;;25.66;40.74
13553;BME280;6847;48.830;9.116;2022-09-09T09:32:18;97633.41;;;25.52;40.48
13553;BME280;6847;48.830;9.116;2022-09-09T09:34:49;97634.72;;;25.24;40.55
13553;BME280;6847;48.830;9.116;2022-09-09T09:37:25;97645.03;;;26.12;39.16
13553;BME280;6847;48.830;9.116;2022-09-09T09:39:53;97641.03;;;28.01;36.38
13553;BME280;6847;48.830;9.116;2022-09-09T09:42:23;97638.19;;;29.55;34.82
13553;BME280;6847;48.830;9.116;2022-09-09T09:44:51;97614.56;;;30.60;33.43
13553;BME280;6847;48.830;9.116;2022-09-09T09:47:20;97635.44;;;32.00;32.45
13553;BME280;6847;48.830;9.116;2022-09-09T09:49:53;97640.22;;;32.69;31.91
13553;BME280;6847;48.830;9.116;2022-09-09T09:52:27;97636.97;;;33.30;31.85
13553;BME280;6847;48.830;9.116;2022-09-09T09:54:54;97637.41;;;33.49;31.23
13553;BME280;6847;48.830;9.116;2022-09-09T09:57:27;97629.50;;;33.60;31.31
13553;BME280;6847;48.830;9.116;2022-09-09T10:00:12;97619.81;;;33.80;31.28
13553;BME280;6847;48.830;9.116;2022-09-09T10:02:49;97613.75;;;34.60;30.55
13553;BME280;6847;48.830;9.116;2022-09-09T10:05:21;97602.69;;;35.10;29.97
13553;BME280;6847;48.830;9.116;2022-09-09T10:08:03;97617.63;;;34.95;30.67
13553;BME280;6847;48.830;9.116;2022-09-09T10:11:04;97611.72;;;34.76;30.59
13553;BME280;6847;48.830;9.116;2022-09-09T10:13:49;97619.59;;;34.81;30.72
13553;BME280;6847;48.830;9.116;2022-09-09T10:16:29;97617.00;;;34.74;30.84
13553;BME280;6847;48.830;9.116;2022-09-09T10:19:08;97607.25;;;34.92;30.32
13553;BME280;6847;48.830;9.116;2022-09-09T10:21:59;97604.91;;;35.44;29.86
13553;BME280;6847;48.830;9.116;2022-09-09T10:24:58;97604.47;;;35.04;30.16
13553;BME280;6847;48.830;9.116;2022-09-09T10:27:33;97605.47;;;34.40;30.19
13553;BME280;6847;48.830;9.116;2022-09-09T10:30:14;97605.81;;;34.71;30.28
13553;BME280;6847;48.830;9.116;2022-09-09T10:32:55;97610.91;;;35.05;29.52
13553;BME280;6847;48.830;9.116;2022-09-09T10:35:31;97571.66;;;35.27;29.15
13553;BME280;6847;48.830;9.116;2022-09-09T10:38:13;97602.19;;;35.53;29.43
13553;BME280;6847;48.830;9.116;2022-09-09T10:41:00;97605.56;;;35.48;29.60
13553;BME280;6847;48.830;9.116;2022-09-09T10:43:46;97604.66;;;36.02;29.17
13553;BME280;6847;48.830;9.116;2022-09-09T10:46:23;97604.78;;;35.48;29.33
13553;BME280;6847;48.830;9.116;2022-09-09T10:49:05;97587.38;;;34.41;30.78
13553;BME280;6847;48.830;9.116;2022-09-09T10:51:44;97607.75;;;33.64;31.07
13553;BME280;6847;48.830;9.116;2022-09-09T10:54:17;97604.56;;;33.10;31.30
13553;BME280;6847;48.830;9.116;2022-09-09T10:56:58;97604.94;;;32.29;32.16
13553;BME280;6847;48.830;9.116;2022-09-09T10:59:31;97581.16;;;31.40;32.76
13553;BME280;6847;48.830;9.116;2022-09-09T11:02:06;97598.75;;;30.80;33.11
13553;BME280;6847;48.830;9.116;2022-09-09T11:04:48;97608.78;;;29.92;34.14
13553;BME280;6847;48.830;9.116;2022-09-09T11:07:25;97621.69;;;29.05;34.44
13553;BME280;6847;48.830;9.116;2022-09-09T11:09:59;97638.63;;;27.74;36.32
13553;BME280;6847;48.830;9.116;2022-09-09T11:12:29;97642.91;;;26.42;38.44
13553;BME280;6847;48.830;9.116;2022-09-09T11:14:59;97625.75;;;25.38;42.68
13553;BME280;6847;48.830;9.116;2022-09-09T11:17:38;97624.34;;;24.54;46.56
13553;BME280;6847;48.830;9.116;2022-09-09T11:20:11;97621.81;;;23.89;48.93
13553;BME280;6847;48.830;9.116;2022-09-09T11:22:43;97629.63;;;23.42;50.69
13553;BME280;6847;48.830;9.116;2022-09-09T11:25:15;97627.16;;;23.14;52.29
13553;BME280;6847;48.830;9.116;2022-09-09T11:27:54;97634.44;;;23.03;53.30
13553;BME280;6847;48.830;9.116;2022-09-09T11:30:29;97644.41;;;22.88;54.13
13553;BME280;6847;48.830;9.116;2022-09-09T11:33:12;97634.66;;;22.75;54.20
13553;BME280;6847;48.830;9.116;2022-09-09T11:35:53;97633.34;;;22.69;54.58
13553;BME280;6847;48.830;9.116;2022-09-09T11:38:29;97643.47;;;22.45;54.58
13553;BME280;6847;48.830;9.116;2022-09-09T11:41:02;97648.69;;;22.31;54.87
13553;BME280;6847;48.830;9.116;2022-09-09T11:43:37;97642.38;;;22.31;55.19
13553;BME280;6847;48.830;9.116;2022-09-09T11:46:06;97574.38;;;21.88;55.02
13553;BME280;6847;48.830;9.116;2022-09-09T11:48:36;97644.00;;;22.16;55.20
13553;BME280;6847;48.830;9.116;2022-09-09T11:51:10;97630.94;;;22.13;55.61
13553;BME280;6847;48.830;9.116;2022-09-09T11:53:51;97628.84;;;22.26;55.68
13553;BME280;6847;48.830;9.116;2022-09-09T11:56:26;97625.16;;;22.37;55.79
13553;BME280;6847;48.830;9.116;2022-09-09T11:58:57;97607.00;;;22.36;55.26
13553;BME280;6847;48.830;9.116;2022-09-09T12:01:39;97595.94;;;22.71;54.55
13553;BME280;6847;48.830;9.116;2022-09-09T12:04:35;97598.69;;;23.10;53.12
13553;BME280;6847;48.830;9.116;2022-09-09T12:07:22;97601.59;;;23.63;51.94
13553;BME280;6847;48.830;9.116;2022-09-09T12:10:20;97605.44;;;24.30;50.39
13553;BME280;6847;48.830;9.116;2022-09-09T12:12:48;97608.63;;;24.62;49.57
13553;BME280;6847;48.830;9.116;2022-09-09T12:15:27;97565.38;;;24.84;48.91
13553;BME280;6847;48.830;9.116;2022-09-09T12:17:56;97599.03;;;25.19;48.60
13553;BME280;6847;48.830;9.116;2022-09-09T12:20:31;97553.19;;;25.25;48.00
13553;BME280;6847;48.830;9.116;2022-09-09T12:23:20;97598.00;;;25.78;47.69
13553;BME280;6847;48.830;9.116;2022-09-09T12:26:21;97597.34;;;25.96;47.09
13553;BME280;6847;48.830;9.116;2022-09-09T12:28:56;97599.53;;;26.24;46.91
13553;BME280;6847;48.830;9.116;2022-09-09T12:31:27;97602.94;;;26.61;46.22
13553;BME280;6847;48.830;9.116;2022-09-09T12:34:09;97576.31;;;26.53;45.52
13553;BME280;6847;48.830;9.116;2022-09-09T12:36:39;97609.78;;;26.81;45.74
13553;BME280;6847;48.830;9.116;2022-09-09T12:39:16;97600.31;;;27.04;45.12
13553;BME280;6847;48.830;9.116;2022-09-09T12:41:51;97559.03;;;26.95;44.66
13553;BME280;6847;48.830;9.116;2022-09-09T12:44:22;97608.81;;;27.85;44.11
13553;BME280;6847;48.830;9.116;2022-09-09T12:46:59;97595.25;;;28.33;43.06
13553;BME280;6847;48.830;9.116;2022-09-09T12:49:30;97594.84;;;28.49;42.49
13553;BME280;6847;48.830;9.116;2022-09-09T12:52:13;97589.31;;;28.03;43.15
13553;BME280;6847;48.830;9.116;2022-09-09T12:54:45;97598.09;;;27.77;42.92
13553;BME280;6847;48.830;9.116;2022-09-09T12:57:16;97582.19;;;27.88;42.68
13553;BME280;6847;48.830;9.116;2022-09-09T12:59:45;97380.44;;;27.09;41.88
13553;BME280;6847;48.830;9.116;2022-09-09T13:02:21;97593.97;;;28.77;41.43
13553;BME280;6847;48.830;9.116;2022-09-09T13:04:48;97526.25;;;28.87;40.71
13553;BME280;6847;48.830;9.116;2022-09-09T13:07:17;97583.75;;;29.26;40.22
13553;BME280;6847;48.830;9.116;2022-09-09T13:09:45;97577.50;;;29.00;40.45
13553;BME280;6847;48.830;9.116;2022-09-09T13:12:15;97553.16;;;29.15;40.05
13553;BME280;6847;48.830;9.116;2022-09-09T13:14:44;97362.66;;;28.11;39.76
13553;BME280;6847;48.830;9.116;2022-09-09T13:17:21;97569.47;;;29.72;39.14
13553;BME280;6847;48.830;9.116;2022-09-09T13:19:48;97565.97;;;29.64;39.19
13553;BME280;6847;48.830;9.116;2022-09-09T13:22:26;97564.69;;;29.72;39.34
13553;BME280;6847;48.830;9.116;2022-09-09T13:25:06;97526.97;;;30.02;37.96
13553;BME280;6847;48.830;9.116;2022-09-09T13:27:41;97545.59;;;30.49;38.02
13553;BME280;6847;48.830;9.116;2022-09-09T13:30:20;97521.84;;;30.95;37.23
13553;BME280;6847;48.830;9.116;2022-09-09T13:33:03;97576.03;;;31.62;36.84
13553;BME280;6847;48.830;9.116;2022-09-09T13:35:32;97508.84;;;30.85;37.12
13553;BME280;6847;48.830;9.116;2022-09-09T13:38:06;97559.25;;;31.08;36.89
13553;BME280;6847;48.830;9.116;2022-09-09T13:40:34;97557.84;;;30.93;37.36
13553;BME280;6847;48.830;9.116;2022-09-09T13:43:02;97533.94;;;30.21;37.86